sensor_id;sensor_type;location;lat;lon;timestamp;pressure;altitude;pressure_sealevel;temperature
61703;BMP280;47622;47.726;3.298;2023-03-23T00:00:53;98482.59;;;12.39
61703;BMP280;47622;47.726;3.298;2023-03-23T00:03:22;98489.72;;;12.26
61703;BMP280;47622;47.726;3.298;2023-03-23T00:05:51;98480.06;;;12.30
61703;BMP280;47622;47.726;3.298;2023-03-23T00:08:20;98488.06;;;12.22
61703;BMP280;47622;47.726;3.298;2023-03-23T00:10:52;98485.63;;;12.16
61703;BMP280;47622;47.726;3.298;2023-03-23T00:13:19;98483.97;;;12.12
61703;BMP280;47622;47.726;3.298;2023-03-23T00:15:46;98478.50;;;12.05
61703;BMP280;47622;47.726;3.298;2023-03-23T00:18:18;98481.44;;;12.03
61703;BMP280;47622;47.726;3.298;2023-03-23T00:20:47;98480.28;;;12.13
61703;BMP280;47622;47.726;3.298;2023-03-23T00:23:16;98481.81;;;12.14
61703;BMP280;47622;47.726;3.298;2023-03-23T00:25:48;98481.06;;;12.13
61703;BMP280;47622;47.726;3.298;2023-03-23T00:28:15;98486.31;;;12.13
61703;BMP280;47622;47.726;3.298;2023-03-23T00:30:41;98467.88;;;12.01
61703;BMP280;47622;47.726;3.298;2023-03-23T00:33:10;98473.13;;;12.01
61703;BMP280;47622;47.726;3.298;2023-03-23T00:35:39;98478.38;;;12.01
61703;BMP280;47622;47.726;3.298;2023-03-23T00:38:05;98478.16;;;11.94
61703;BMP280;47622;47.726;3.298;2023-03-23T00:40:31;98469.50;;;12.06
61703;BMP280;47622;47.726;3.298;2023-03-23T00:43:01;98468.75;;;12.05
61703;BMP280;47622;47.726;3.298;2023-03-23T00:45:28;98467.28;;;11.96
61703;BMP280;47622;47.726;3.298;2023-03-23T00:47:54;98478.75;;;11.91
61703;BMP280;47622;47.726;3.298;2023-03-23T00:50:20;98487.13;;;11.93
61703;BMP280;47622;47.726;3.298;2023-03-23T00:52:45;98487.75;;;11.90
61703;BMP280;47622;47.726;3.298;2023-03-23T00:55:11;98476.47;;;11.90
61703;BMP280;47622;47.726;3.298;2023-03-23T00:57:36;98475.84;;;11.93
61703;BMP280;47622;47.726;3.298;2023-03-23T01:00:03;98472.31;;;11.88
61703;BMP280;47622;47.726;3.298;2023-03-23T01:02:34;98463.00;;;11.91
61703;BMP280;47622;47.726;3.298;2023-03-23T01:05:01;98456.44;;;11.85
61703;BMP280;47622;47.726;3.298;2023-03-23T01:07:30;98461.47;;;11.90
61703;BMP280;47622;47.726;3.298;2023-03-23T01:09:56;98469.56;;;11.85
61703;BMP280;47622;47.726;3.298;2023-03-23T01:12:23;98474.56;;;11.78
61703;BMP280;47622;47.726;3.298;2023-03-23T01:14:51;98482.47;;;11.78
61703;BMP280;47622;47.726;3.298;2023-03-23T01:17:17;98472.19;;;11.85
61703;BMP280;47622;47.726;3.298;2023-03-23T01:19:44;98475.91;;;11.84
61703;BMP280;47622;47.726;3.298;2023-03-23T01:22:09;98479.31;;;11.84
61703;BMP280;47622;47.726;3.298;2023-03-23T01:24:35;98479.84;;;11.78
61703;BMP280;47622;47.726;3.298;2023-03-23T01:27:01;98468.78;;;11.84
61703;BMP280;47622;47.726;3.298;2023-03-23T01:29:35;98471.81;;;11.74
61703;BMP280;47622;47.726;3.298;2023-03-23T01:32:01;98475.66;;;11.77
61703;BMP280;47622;47.726;3.298;2023-03-23T01:34:28;98468.03;;;11.84
61703;BMP280;47622;47.726;3.298;2023-03-23T01:36:54;98474.75;;;11.73
61703;BMP280;47622;47.726;3.298;2023-03-23T01:39:20;98478.69;;;11.67
61703;BMP280;47622;47.726;3.298;2023-03-23T01:41:45;98479.59;;;11.71
61703;BMP280;47622;47.726;3.298;2023-03-23T01:46:44;98475.66;;;11.77
61703;BMP280;47622;47.726;3.298;2023-03-23T01:52:00;98463.84;;;11.71
61703;BMP280;47622;47.726;3.298;2023-03-23T01:54:29;98457.53;;;11.84
61703;BMP280;47622;47.726;3.298;2023-03-23T01:56:58;98454.28;;;11.87
61703;BMP280;47622;47.726;3.298;2023-03-23T01:59:26;98453.81;;;11.85
61703;BMP280;47622;47.726;3.298;2023-03-23T02:01:55;98462.78;;;11.84
61703;BMP280;47622;47.726;3.298;2023-03-23T02:04:23;98459.72;;;11.82
61703;BMP280;47622;47.726;3.298;2023-03-23T02:06:51;98434.97;;;11.83
61703;BMP280;47622;47.726;3.298;2023-03-23T02:09:18;98423.81;;;11.86
61703;BMP280;47622;47.726;3.298;2023-03-23T02:11:47;98423.81;;;11.86
61703;BMP280;47622;47.726;3.298;2023-03-23T02:14:14;98421.19;;;11.86
61703;BMP280;47622;47.726;3.298;2023-03-23T02:16:47;98434.31;;;11.86
61703;BMP280;47622;47.726;3.298;2023-03-23T02:19:39;98440.56;;;11.81
61703;BMP280;47622;47.726;3.298;2023-03-23T02:22:33;98447.34;;;11.82
61703;BMP280;47622;47.726;3.298;2023-03-23T02:25:46;98447.66;;;11.81
61703;BMP280;47622;47.726;3.298;2023-03-23T02:34:13;98410.00;;;11.77
61703;BMP280;47622;47.726;3.298;2023-03-23T02:36:51;98403.22;;;11.76
61703;BMP280;47622;47.726;3.298;2023-03-23T02:39:26;98410.84;;;11.69
61703;BMP280;47622;47.726;3.298;2023-03-23T02:42:00;98426.16;;;11.67
61703;BMP280;47622;47.726;3.298;2023-03-23T02:44:30;98412.84;;;11.72
61703;BMP280;47622;47.726;3.298;2023-03-23T02:46:57;98415.28;;;11.77
61703;BMP280;47622;47.726;3.298;2023-03-23T02:49:26;98412.84;;;11.72
61703;BMP280;47622;47.726;3.298;2023-03-23T02:51:56;98405.16;;;11.67
61703;BMP280;47622;47.726;3.298;2023-03-23T02:54:24;98402.75;;;11.62
61703;BMP280;47622;47.726;3.298;2023-03-23T02:56:51;98404.38;;;11.66
61703;BMP280;47622;47.726;3.298;2023-03-23T02:59:17;98394.66;;;11.67
61703;BMP280;47622;47.726;3.298;2023-03-23T03:04:14;98406.47;;;11.61
61703;BMP280;47622;47.726;3.298;2023-03-23T03:15:12;98403.53;;;11.41
61703;BMP280;47622;47.726;3.298;2023-03-23T03:17:50;98407.50;;;11.47
61703;BMP280;47622;47.726;3.298;2023-03-23T03:20:16;98410.75;;;11.44
61703;BMP280;47622;47.726;3.298;2023-03-23T03:22:43;98407.66;;;11.42
61703;BMP280;47622;47.726;3.298;2023-03-23T03:25:11;98401.84;;;11.37
61703;BMP280;47622;47.726;3.298;2023-03-23T03:27:41;98406.16;;;11.41
61703;BMP280;47622;47.726;3.298;2023-03-23T03:30:10;98402.78;;;11.41
61703;BMP280;47622;47.726;3.298;2023-03-23T03:32:49;98398.91;;;11.38
61703;BMP280;47622;47.726;3.298;2023-03-23T03:35:21;98401.78;;;11.33
61703;BMP280;47622;47.726;3.298;2023-03-23T03:37:47;98407.78;;;11.34
61703;BMP280;47622;47.726;3.298;2023-03-23T03:40:16;98419.66;;;11.31
61703;BMP280;47622;47.726;3.298;2023-03-23T03:42:44;98414.22;;;11.36
61703;BMP280;47622;47.726;3.298;2023-03-23T03:45:13;98414.66;;;11.38
61703;BMP280;47622;47.726;3.298;2023-03-23T03:47:40;98407.97;;;11.49
61703;BMP280;47622;47.726;3.298;2023-03-23T03:50:06;98399.19;;;11.45
61703;BMP280;47622;47.726;3.298;2023-03-23T03:52:33;98409.56;;;11.42
61703;BMP280;47622;47.726;3.298;2023-03-23T03:54:59;98397.38;;;11.37
61703;BMP280;47622;47.726;3.298;2023-03-23T03:57:24;98384.25;;;11.37
61703;BMP280;47622;47.726;3.298;2023-03-23T03:59:50;98382.16;;;11.31
61703;BMP280;47622;47.726;3.298;2023-03-23T04:02:16;98368.72;;;11.32
61703;BMP280;47622;47.726;3.298;2023-03-23T04:04:49;98379.69;;;11.34
61703;BMP280;47622;47.726;3.298;2023-03-23T04:07:15;98391.69;;;11.35
61703;BMP280;47622;47.726;3.298;2023-03-23T04:09:43;98392.34;;;11.32
61703;BMP280;47622;47.726;3.298;2023-03-23T04:12:11;98393.56;;;11.35
61703;BMP280;47622;47.726;3.298;2023-03-23T04:14:38;98384.47;;;11.32
61703;BMP280;47622;47.726;3.298;2023-03-23T04:17:03;98393.94;;;11.45
61703;BMP280;47622;47.726;3.298;2023-03-23T04:19:29;98400.09;;;11.49
61703;BMP280;47622;47.726;3.298;2023-03-23T04:21:58;98406.19;;;11.53
61703;BMP280;47622;47.726;3.298;2023-03-23T04:24:24;98415.06;;;11.49
61703;BMP280;47622;47.726;3.298;2023-03-23T04:26:50;98403.78;;;11.48
61703;BMP280;47622;47.726;3.298;2023-03-23T04:29:19;98392.31;;;11.53
61703;BMP280;47622;47.726;3.298;2023-03-23T04:31:45;98407.75;;;11.54
61703;BMP280;47622;47.726;3.298;2023-03-23T04:34:11;98407.97;;;11.49
61703;BMP280;47622;47.726;3.298;2023-03-23T04:36:39;98420.50;;;11.44
61703;BMP280;47622;47.726;3.298;2023-03-23T04:39:06;98425.44;;;11.45
61703;BMP280;47622;47.726;3.298;2023-03-23T04:41:36;98428.88;;;11.37
61703;BMP280;47622;47.726;3.298;2023-03-23T04:44:03;98440.28;;;11.41
61703;BMP280;47622;47.726;3.298;2023-03-23T04:46:29;98438.56;;;11.45
61703;BMP280;47622;47.726;3.298;2023-03-23T04:48:56;98439.66;;;11.44
61703;BMP280;47622;47.726;3.298;2023-03-23T04:51:30;98444.63;;;11.37
61703;BMP280;47622;47.726;3.298;2023-03-23T04:53:56;98453.78;;;11.31
61703;BMP280;47622;47.726;3.298;2023-03-23T04:56:22;98445.47;;;11.29
61703;BMP280;47622;47.726;3.298;2023-03-23T04:58:48;98439.78;;;11.27
61703;BMP280;47622;47.726;3.298;2023-03-23T05:01:13;98431.00;;;11.23
61703;BMP280;47622;47.726;3.298;2023-03-23T05:03:40;98442.84;;;11.29
61703;BMP280;47622;47.726;3.298;2023-03-23T05:06:06;98450.06;;;11.32
61703;BMP280;47622;47.726;3.298;2023-03-23T05:08:32;98461.66;;;11.31
61703;BMP280;47622;47.726;3.298;2023-03-23T05:10:59;98461.97;;;11.30
61703;BMP280;47622;47.726;3.298;2023-03-23T05:13:27;98457.06;;;11.28
61703;BMP280;47622;47.726;3.298;2023-03-23T05:15:53;98465.56;;;11.25
61703;BMP280;47622;47.726;3.298;2023-03-23T05:18:19;98485.34;;;11.22
61703;BMP280;47622;47.726;3.298;2023-03-23T05:20:48;98481.88;;;11.31
61703;BMP280;47622;47.726;3.298;2023-03-23T05:23:14;98473.25;;;11.30
61703;BMP280;47622;47.726;3.298;2023-03-23T05:25:41;98469.72;;;11.26
61703;BMP280;47622;47.726;3.298;2023-03-23T05:28:08;98470.72;;;11.13
61703;BMP280;47622;47.726;3.298;2023-03-23T05:30:36;98483.84;;;11.13
61703;BMP280;47622;47.726;3.298;2023-03-23T05:33:03;98482.00;;;11.13
61703;BMP280;47622;47.726;3.298;2023-03-23T05:35:29;98477.50;;;11.14
61703;BMP280;47622;47.726;3.298;2023-03-23T05:37:55;98480.94;;;11.06
61703;BMP280;47622;47.726;3.298;2023-03-23T05:40:22;98481.22;;;11.13
61703;BMP280;47622;47.726;3.298;2023-03-23T05:42:51;98483.69;;;11.18
61703;BMP280;47622;47.726;3.298;2023-03-23T05:45:17;98479.50;;;11.17
61703;BMP280;47622;47.726;3.298;2023-03-23T05:47:43;98474.06;;;11.22
61703;BMP280;47622;47.726;3.298;2023-03-23T05:50:11;98474.72;;;11.19
61703;BMP280;47622;47.726;3.298;2023-03-23T05:52:38;98472.91;;;11.11
61703;BMP280;47622;47.726;3.298;2023-03-23T05:55:05;98472.25;;;11.14
61703;BMP280;47622;47.726;3.298;2023-03-23T05:57:31;98467.00;;;11.14
61703;BMP280;47622;47.726;3.298;2023-03-23T05:59:57;98475.41;;;11.07
61703;BMP280;47622;47.726;3.298;2023-03-23T06:02:24;98488.31;;;11.12
61703;BMP280;47622;47.726;3.298;2023-03-23T06:04:53;98474.16;;;11.05
61703;BMP280;47622;47.726;3.298;2023-03-23T06:07:23;98487.94;;;11.02
61703;BMP280;47622;47.726;3.298;2023-03-23T06:09:50;98477.75;;;11.00
61703;BMP280;47622;47.726;3.298;2023-03-23T06:12:16;98497.19;;;10.99
61703;BMP280;47622;47.726;3.298;2023-03-23T06:14:46;98483.75;;;11.01
61703;BMP280;47622;47.726;3.298;2023-03-23T06:17:12;98485.31;;;11.02
61703;BMP280;47622;47.726;3.298;2023-03-23T06:19:39;98491.16;;;10.99
61703;BMP280;47622;47.726;3.298;2023-03-23T06:22:04;98489.63;;;10.98
61703;BMP280;47622;47.726;3.298;2023-03-23T06:24:30;98488.56;;;10.99
61703;BMP280;47622;47.726;3.298;2023-03-23T06:26:57;98484.03;;;11.08
61703;BMP280;47622;47.726;3.298;2023-03-23T06:29:23;98488.94;;;11.18
61703;BMP280;47622;47.726;3.298;2023-03-23T06:31:53;98489.03;;;11.21
61703;BMP280;47622;47.726;3.298;2023-03-23T06:34:20;98489.78;;;11.22
61703;BMP280;47622;47.726;3.298;2023-03-23T06:36:45;98505.53;;;11.22
61703;BMP280;47622;47.726;3.298;2023-03-23T06:39:13;98497.50;;;11.27
61703;BMP280;47622;47.726;3.298;2023-03-23T06:41:39;98497.22;;;11.20
61703;BMP280;47622;47.726;3.298;2023-03-23T06:44:07;98504.47;;;11.23
61703;BMP280;47622;47.726;3.298;2023-03-23T06:46:33;98509.25;;;11.21
61703;BMP280;47622;47.726;3.298;2023-03-23T06:48:59;98510.50;;;11.23
61703;BMP280;47622;47.726;3.298;2023-03-23T06:51:25;98500.34;;;11.13
61703;BMP280;47622;47.726;3.298;2023-03-23T06:53:51;98514.50;;;11.21
61703;BMP280;47622;47.726;3.298;2023-03-23T06:56:17;98518.06;;;11.25
61703;BMP280;47622;47.726;3.298;2023-03-23T06:58:42;98527.00;;;11.24
61703;BMP280;47622;47.726;3.298;2023-03-23T07:01:11;98525.00;;;11.21
61703;BMP280;47622;47.726;3.298;2023-03-23T07:03:36;98531.34;;;11.20
61703;BMP280;47622;47.726;3.298;2023-03-23T07:06:03;98541.66;;;11.25
61703;BMP280;47622;47.726;3.298;2023-03-23T07:08:29;98532.34;;;11.27
61703;BMP280;47622;47.726;3.298;2023-03-23T07:10:56;98538.72;;;11.26
61703;BMP280;47622;47.726;3.298;2023-03-23T07:13:22;98534.06;;;11.32
61703;BMP280;47622;47.726;3.298;2023-03-23T07:15:48;98535.72;;;11.37
61703;BMP280;47622;47.726;3.298;2023-03-23T07:18:16;98528.00;;;11.40
61703;BMP280;47622;47.726;3.298;2023-03-23T07:20:41;98523.00;;;11.47
61703;BMP280;47622;47.726;3.298;2023-03-23T07:23:08;98519.47;;;11.64
61703;BMP280;47622;47.726;3.298;2023-03-23T07:25:35;98526.19;;;11.74
61703;BMP280;47622;47.726;3.298;2023-03-23T07:28:02;98536.44;;;11.67
61703;BMP280;47622;47.726;3.298;2023-03-23T07:30:29;98542.63;;;11.71
61703;BMP280;47622;47.726;3.298;2023-03-23T07:32:56;98534.78;;;11.83
61703;BMP280;47622;47.726;3.298;2023-03-23T07:35:23;98536.81;;;11.98
61703;BMP280;47622;47.726;3.298;2023-03-23T07:37:50;98540.94;;;12.08
61703;BMP280;47622;47.726;3.298;2023-03-23T07:40:18;98555.06;;;12.15
61703;BMP280;47622;47.726;3.298;2023-03-23T07:42:46;98552.03;;;12.26
61703;BMP280;47622;47.726;3.298;2023-03-23T07:45:15;98550.44;;;12.12
61703;BMP280;47622;47.726;3.298;2023-03-23T07:47:42;98544.25;;;11.96
61703;BMP280;47622;47.726;3.298;2023-03-23T07:50:08;98545.53;;;11.90
61703;BMP280;47622;47.726;3.298;2023-03-23T07:52:35;98549.91;;;11.86
61703;BMP280;47622;47.726;3.298;2023-03-23T07:55:01;98547.03;;;11.79
61703;BMP280;47622;47.726;3.298;2023-03-23T07:57:30;98560.00;;;11.75
61703;BMP280;47622;47.726;3.298;2023-03-23T07:59:56;98561.94;;;11.66
61703;BMP280;47622;47.726;3.298;2023-03-23T08:02:23;98562.53;;;11.72
61703;BMP280;47622;47.726;3.298;2023-03-23T08:04:50;98559.41;;;11.78
61703;BMP280;47622;47.726;3.298;2023-03-23T08:07:16;98563.44;;;11.76
61703;BMP280;47622;47.726;3.298;2023-03-23T08:09:45;98557.47;;;11.87
61703;BMP280;47622;47.726;3.298;2023-03-23T08:12:11;98552.31;;;11.91
61703;BMP280;47622;47.726;3.298;2023-03-23T08:14:37;98558.47;;;11.95
61703;BMP280;47622;47.726;3.298;2023-03-23T08:17:03;98560.28;;;12.03
61703;BMP280;47622;47.726;3.298;2023-03-23T08:19:29;98561.97;;;11.87
61703;BMP280;47622;47.726;3.298;2023-03-23T08:21:55;98567.97;;;11.87
61703;BMP280;47622;47.726;3.298;2023-03-23T08:24:22;98574.22;;;11.95
61703;BMP280;47622;47.726;3.298;2023-03-23T08:26:48;98583.59;;;11.84
61703;BMP280;47622;47.726;3.298;2023-03-23T08:29:14;98580.53;;;11.82
61703;BMP280;47622;47.726;3.298;2023-03-23T08:31:42;98587.94;;;11.80
61703;BMP280;47622;47.726;3.298;2023-03-23T08:34:10;98587.56;;;11.90
61703;BMP280;47622;47.726;3.298;2023-03-23T08:36:36;98587.38;;;11.95
61703;BMP280;47622;47.726;3.298;2023-03-23T08:39:03;98594.06;;;11.93
61703;BMP280;47622;47.726;3.298;2023-03-23T08:41:31;98593.56;;;12.11
61703;BMP280;47622;47.726;3.298;2023-03-23T08:43:57;98592.16;;;12.35
61703;BMP280;47622;47.726;3.298;2023-03-23T08:46:22;98589.22;;;12.36
61703;BMP280;47622;47.726;3.298;2023-03-23T08:48:49;98596.34;;;12.48
61703;BMP280;47622;47.726;3.298;2023-03-23T08:51:15;98594.97;;;12.75
61703;BMP280;47622;47.726;3.298;2023-03-23T08:53:40;98601.78;;;12.76
61703;BMP280;47622;47.726;3.298;2023-03-23T08:56:10;98600.38;;;12.78
61703;BMP280;47622;47.726;3.298;2023-03-23T08:58:39;98603.84;;;12.70
61703;BMP280;47622;47.726;3.298;2023-03-23T09:01:06;98601.00;;;12.63
61703;BMP280;47622;47.726;3.298;2023-03-23T09:03:33;98598.53;;;12.46
61703;BMP280;47622;47.726;3.298;2023-03-23T09:06:05;98598.56;;;12.58
61703;BMP280;47622;47.726;3.298;2023-03-23T09:08:32;98604.94;;;12.57
61703;BMP280;47622;47.726;3.298;2023-03-23T09:11:02;98608.22;;;12.66
61703;BMP280;47622;47.726;3.298;2023-03-23T09:13:28;98603.63;;;12.63
61703;BMP280;47622;47.726;3.298;2023-03-23T09:15:54;98607.78;;;12.64
61703;BMP280;47622;47.726;3.298;2023-03-23T09:18:20;98610.44;;;12.64
61703;BMP280;47622;47.726;3.298;2023-03-23T09:20:46;98614.56;;;12.65
61703;BMP280;47622;47.726;3.298;2023-03-23T09:23:14;98624.91;;;12.70
61703;BMP280;47622;47.726;3.298;2023-03-23T09:25:41;98621.81;;;12.68
61703;BMP280;47622;47.726;3.298;2023-03-23T09:28:06;98623.06;;;12.83
61703;BMP280;47622;47.726;3.298;2023-03-23T09:30:33;98614.63;;;12.77
61703;BMP280;47622;47.726;3.298;2023-03-23T09:33:01;98618.59;;;12.84
61703;BMP280;47622;47.726;3.298;2023-03-23T09:35:27;98611.34;;;12.93
61703;BMP280;47622;47.726;3.298;2023-03-23T09:37:53;98618.59;;;13.08
61703;BMP280;47622;47.726;3.298;2023-03-23T09:40:25;98631.75;;;13.08
61703;BMP280;47622;47.726;3.298;2023-03-23T09:48:40;98631.44;;;13.09
61703;BMP280;47622;47.726;3.298;2023-03-23T10:00:40;98627.22;;;13.45
61703;BMP280;47622;47.726;3.298;2023-03-23T10:03:16;98616.63;;;13.41
61703;BMP280;47622;47.726;3.298;2023-03-23T10:05:48;98615.00;;;13.37
61703;BMP280;47622;47.726;3.298;2023-03-23T10:08:20;98606.31;;;13.36
61703;BMP280;47622;47.726;3.298;2023-03-23T10:11:09;98616.84;;;13.49
61703;BMP280;47622;47.726;3.298;2023-03-23T10:16:13;98602.56;;;13.50
61703;BMP280;47622;47.726;3.298;2023-03-23T10:21:31;98602.69;;;13.41
61703;BMP280;47622;47.726;3.298;2023-03-23T10:24:01;98604.53;;;13.53
61703;BMP280;47622;47.726;3.298;2023-03-23T10:31:43;98615.34;;;13.76
61703;BMP280;47622;47.726;3.298;2023-03-23T10:34:21;98618.25;;;13.98
61703;BMP280;47622;47.726;3.298;2023-03-23T10:37:16;98610.03;;;13.88
61703;BMP280;47622;47.726;3.298;2023-03-23T10:39:52;98612.84;;;13.67
61703;BMP280;47622;47.726;3.298;2023-03-23T10:42:25;98603.63;;;13.61
61703;BMP280;47622;47.726;3.298;2023-03-23T10:44:53;98618.78;;;13.64
61703;BMP280;47622;47.726;3.298;2023-03-23T10:47:18;98613.75;;;13.99
61703;BMP280;47622;47.726;3.298;2023-03-23T10:49:54;98618.25;;;13.98
61703;BMP280;47622;47.726;3.298;2023-03-23T10:55:00;98609.72;;;13.89
61703;BMP280;47622;47.726;3.298;2023-03-23T10:57:30;98611.97;;;13.75
61703;BMP280;47622;47.726;3.298;2023-03-23T11:00:15;98607.31;;;13.84
61703;BMP280;47622;47.726;3.298;2023-03-23T11:03:05;98593.91;;;13.89
61703;BMP280;47622;47.726;3.298;2023-03-23T11:05:40;98594.16;;;14.12
61703;BMP280;47622;47.726;3.298;2023-03-23T11:08:15;98586.13;;;14.52
61703;BMP280;47622;47.726;3.298;2023-03-23T11:10:48;98582.03;;;14.86
61703;BMP280;47622;47.726;3.298;2023-03-23T11:13:16;98583.38;;;15.12
61703;BMP280;47622;47.726;3.298;2023-03-23T11:15:44;98565.13;;;15.42
61703;BMP280;47622;47.726;3.298;2023-03-23T11:18:40;98569.72;;;15.25
61703;BMP280;47622;47.726;3.298;2023-03-23T11:21:11;98561.25;;;15.36
61703;BMP280;47622;47.726;3.298;2023-03-23T11:23:39;98557.41;;;15.52
61703;BMP280;47622;47.726;3.298;2023-03-23T11:29:03;98549.50;;;15.52
61703;BMP280;47622;47.726;3.298;2023-03-23T11:31:36;98531.31;;;15.47
61703;BMP280;47622;47.726;3.298;2023-03-23T11:36:34;98526.03;;;15.12
61703;BMP280;47622;47.726;3.298;2023-03-23T11:39:00;98525.09;;;15.40
61703;BMP280;47622;47.726;3.298;2023-03-23T11:41:37;98514.06;;;15.53
61703;BMP280;47622;47.726;3.298;2023-03-23T11:44:09;98519.94;;;15.66
61703;BMP280;47622;47.726;3.298;2023-03-23T11:49:41;98515.31;;;15.82
61703;BMP280;47622;47.726;3.298;2023-03-23T11:52:23;98503.59;;;16.03
61703;BMP280;47622;47.726;3.298;2023-03-23T11:54:57;98505.38;;;16.18
61703;BMP280;47622;47.726;3.298;2023-03-23T11:57:29;98507.44;;;16.54
61703;BMP280;47622;47.726;3.298;2023-03-23T11:59:56;98509.63;;;16.26
61703;BMP280;47622;47.726;3.298;2023-03-23T12:02:43;98499.13;;;16.07
61703;BMP280;47622;47.726;3.298;2023-03-23T12:05:37;98501.53;;;15.92
61703;BMP280;47622;47.726;3.298;2023-03-23T12:13:16;98494.69;;;15.69
61703;BMP280;47622;47.726;3.298;2023-03-23T12:21:37;98480.75;;;16.40
61703;BMP280;47622;47.726;3.298;2023-03-23T12:27:07;98477.09;;;16.78
61703;BMP280;47622;47.726;3.298;2023-03-23T12:29:39;98482.84;;;16.80
61703;BMP280;47622;47.726;3.298;2023-03-23T12:32:40;98486.50;;;16.72
61703;BMP280;47622;47.726;3.298;2023-03-23T12:38:38;98477.09;;;16.78
61703;BMP280;47622;47.726;3.298;2023-03-23T12:46:30;98474.94;;;16.31
61703;BMP280;47622;47.726;3.298;2023-03-23T12:49:03;98478.31;;;16.28
61703;BMP280;47622;47.726;3.298;2023-03-23T12:51:35;98477.50;;;16.24
61703;BMP280;47622;47.726;3.298;2023-03-23T12:57:10;98506.63;;;16.05
61703;BMP280;47622;47.726;3.298;2023-03-23T12:59:47;98511.13;;;16.01
61703;BMP280;47622;47.726;3.298;2023-03-23T13:02:39;98524.06;;;16.06
61703;BMP280;47622;47.726;3.298;2023-03-23T13:07:59;98522.28;;;15.90
61703;BMP280;47622;47.726;3.298;2023-03-23T13:10:29;98532.97;;;15.98
61703;BMP280;47622;47.726;3.298;2023-03-23T13:12:58;98509.72;;;16.07
61703;BMP280;47622;47.726;3.298;2023-03-23T13:18:37;98501.34;;;16.50
61703;BMP280;47622;47.726;3.298;2023-03-23T13:21:30;98476.44;;;16.55
61703;BMP280;47622;47.726;3.298;2023-03-23T13:24:01;98474.44;;;16.48
61703;BMP280;47622;47.726;3.298;2023-03-23T13:26:31;98459.88;;;16.62
61703;BMP280;47622;47.726;3.298;2023-03-23T13:29:05;98452.34;;;16.37
61703;BMP280;47622;47.726;3.298;2023-03-23T13:31:38;98446.06;;;16.45
61703;BMP280;47622;47.726;3.298;2023-03-23T13:34:24;98438.72;;;16.62
61703;BMP280;47622;47.726;3.298;2023-03-23T13:39:35;98446.84;;;16.76
61703;BMP280;47622;47.726;3.298;2023-03-23T14:05:42;98438.28;;;16.86
61703;BMP280;47622;47.726;3.298;2023-03-23T14:10:36;98428.19;;;16.69
61703;BMP280;47622;47.726;3.298;2023-03-23T14:13:06;98426.69;;;16.41
61703;BMP280;47622;47.726;3.298;2023-03-23T14:15:42;98427.88;;;16.17
61703;BMP280;47622;47.726;3.298;2023-03-23T14:18:14;98428.50;;;15.84
61703;BMP280;47622;47.726;3.298;2023-03-23T14:20:41;98431.28;;;15.72
61703;BMP280;47622;47.726;3.298;2023-03-23T14:23:15;98437.16;;;15.62
61703;BMP280;47622;47.726;3.298;2023-03-23T14:25:41;98422.81;;;15.59
61703;BMP280;47622;47.726;3.298;2023-03-23T14:28:17;98426.88;;;15.57
61703;BMP280;47622;47.726;3.298;2023-03-23T14:30:43;98417.88;;;15.58
61703;BMP280;47622;47.726;3.298;2023-03-23T14:33:11;98419.34;;;15.36
61703;BMP280;47622;47.726;3.298;2023-03-23T14:35:40;98420.13;;;15.37
61703;BMP280;47622;47.726;3.298;2023-03-23T14:38:18;98415.38;;;15.46
61703;BMP280;47622;47.726;3.298;2023-03-23T14:40:45;98411.28;;;15.48
61703;BMP280;47622;47.726;3.298;2023-03-23T14:43:15;98408.53;;;15.45
61703;BMP280;47622;47.726;3.298;2023-03-23T14:45:43;98413.84;;;15.45
61703;BMP280;47622;47.726;3.298;2023-03-23T14:48:13;98409.66;;;15.44
61703;BMP280;47622;47.726;3.298;2023-03-23T14:50:42;98397.03;;;15.34
61703;BMP280;47622;47.726;3.298;2023-03-23T14:53:23;98400.56;;;15.41
61703;BMP280;47622;47.726;3.298;2023-03-23T14:55:51;98395.34;;;15.45
61703;BMP280;47622;47.726;3.298;2023-03-23T14:58:19;98395.63;;;15.59
61703;BMP280;47622;47.726;3.298;2023-03-23T15:01:05;98397.81;;;15.57
61703;BMP280;47622;47.726;3.298;2023-03-23T15:03:37;98403.09;;;15.57
61703;BMP280;47622;47.726;3.298;2023-03-23T15:06:15;98389.75;;;15.50
61703;BMP280;47622;47.726;3.298;2023-03-23T15:08:43;98400.63;;;15.45
61703;BMP280;47622;47.726;3.298;2023-03-23T15:11:20;98395.47;;;15.52
61703;BMP280;47622;47.726;3.298;2023-03-23T15:13:51;98394.56;;;15.44
61703;BMP280;47622;47.726;3.298;2023-03-23T15:16:46;98391.53;;;15.42
61703;BMP280;47622;47.726;3.298;2023-03-23T15:19:18;98393.81;;;15.44
61703;BMP280;47622;47.726;3.298;2023-03-23T15:22:03;98386.31;;;15.46
61703;BMP280;47622;47.726;3.298;2023-03-23T15:24:40;98381.66;;;15.39
61703;BMP280;47622;47.726;3.298;2023-03-23T15:27:29;98379.78;;;15.40
61703;BMP280;47622;47.726;3.298;2023-03-23T15:29:57;98378.63;;;15.37
61703;BMP280;47622;47.726;3.298;2023-03-23T15:32:28;98375.34;;;15.24
61703;BMP280;47622;47.726;3.298;2023-03-23T15:34:55;98371.97;;;15.24
61703;BMP280;47622;47.726;3.298;2023-03-23T15:37:27;98367.44;;;15.24
61703;BMP280;47622;47.726;3.298;2023-03-23T15:39:54;98367.91;;;15.30
61703;BMP280;47622;47.726;3.298;2023-03-23T15:42:26;98361.16;;;15.32
61703;BMP280;47622;47.726;3.298;2023-03-23T15:44:58;98362.78;;;15.37
61703;BMP280;47622;47.726;3.298;2023-03-23T15:47:35;98364.34;;;15.42
61703;BMP280;47622;47.726;3.298;2023-03-23T15:52:51;98352.38;;;15.48
61703;BMP280;47622;47.726;3.298;2023-03-23T15:55:28;98347.78;;;15.45
61703;BMP280;47622;47.726;3.298;2023-03-23T15:57:56;98341.81;;;15.48
61703;BMP280;47622;47.726;3.298;2023-03-23T16:00:24;98343.25;;;15.45
61703;BMP280;47622;47.726;3.298;2023-03-23T16:02:57;98335.78;;;15.47
61703;BMP280;47622;47.726;3.298;2023-03-23T16:05:24;98338.88;;;15.53
61703;BMP280;47622;47.726;3.298;2023-03-23T16:07:50;98335.66;;;15.63
61703;BMP280;47622;47.726;3.298;2023-03-23T16:10:19;98341.34;;;15.65
61703;BMP280;47622;47.726;3.298;2023-03-23T16:12:45;98339.84;;;15.68
61703;BMP280;47622;47.726;3.298;2023-03-23T16:15:12;98339.81;;;15.64
61703;BMP280;47622;47.726;3.298;2023-03-23T16:17:38;98335.31;;;15.68
61703;BMP280;47622;47.726;3.298;2023-03-23T16:20:21;98333.13;;;15.70
61703;BMP280;47622;47.726;3.298;2023-03-23T16:22:49;98330.75;;;15.65
61703;BMP280;47622;47.726;3.298;2023-03-23T16:25:16;98332.25;;;15.66